createdAt,value
2022-10-11T00:00:02.543Z,66.37864142440975
2022-10-11T00:15:02.146Z,66.48028027341884
2022-10-11T00:30:01.869Z,66.72206425628673
2022-10-11T00:45:02.534Z,66.65795302732565
2022-10-11T01:00:02.220Z,66.9216222287054
2022-10-11T01:15:01.831Z,67.11185346860834
2022-10-11T01:30:02.511Z,66.82285693207955
2022-10-11T01:45:02.121Z,66.76285727909794
2022-10-11T02:00:01.787Z,66.7083631872385
2022-10-11T02:15:02.390Z,66.54444103534169
2022-10-11T02:30:02.116Z,66.6882728725552
2022-10-11T02:45:01.729Z,66.76427801787537
2022-10-11T03:00:02.388Z,66.81933450713531
2022-10-11T03:15:02.054Z,66.97334683220853
2022-10-11T03:30:01.751Z,66.98149900759866
2022-10-11T03:45:02.362Z,66.93394697154314
2022-10-11T04:00:02.035Z,67.32846711705298
2022-10-11T04:15:01.705Z,67.0541751820988
2022-10-11T04:30:01.886Z,68.51334201473598
2022-10-11T04:45:02.542Z,69.07075576930293
2022-10-11T05:00:02.163Z,67.75283488142483
2022-10-11T05:15:01.814Z,68.21219354217718
2022-10-11T05:30:02.548Z,67.60061910516318
2022-10-11T05:45:02.212Z,67.81443122737726
2022-10-11T06:00:01.836Z,68.19267909044277
2022-10-11T06:15:02.490Z,69.4416277071623
2022-10-11T06:30:02.144Z,70.58594427453455
2022-10-11T06:45:01.844Z,68.56731737133158
2022-10-11T07:00:02.531Z,68.57181304554832
2022-10-11T07:15:02.246Z,67.86342941305594
2022-10-11T07:30:01.921Z,67.85726345207844
2022-10-11T07:45:01.602Z,67.87376257586712
2022-10-11T08:00:02.259Z,68.55870636811868
2022-10-11T08:15:01.988Z,69.63355925144164
2022-10-11T08:30:01.637Z,70.63050569164527
2022-10-11T08:45:11.579Z,73.00197831844011
2022-10-11T09:00:01.803Z,74.13245058074482
2022-10-11T09:15:02.437Z,75.20832539143254
2022-10-11T09:30:02.154Z,75.7761293418236
2022-10-11T09:45:01.809Z,75.8520838892663
2022-10-11T10:00:02.497Z,76.81011860262335
2022-10-11T10:15:02.178Z,76.43172836595986
2022-10-11T10:30:01.830Z,75.88552543370987
2022-10-11T10:45:02.490Z,75.14900197201518
2022-10-11T11:00:02.164Z,74.03287223125815
2022-10-11T11:15:01.822Z,73.5209776842168
2022-10-11T11:30:02.571Z,72.38035493999897
2022-10-11T11:45:02.185Z,71.4601962356727
2022-10-11T12:00:01.810Z,67.37752440449006
2022-10-11T12:15:02.452Z,64.29371919499968
2022-10-11T12:30:02.107Z,61.69186217136189
2022-10-11T12:45:01.766Z,62.33623211510239
2022-10-11T13:00:02.414Z,59.854067120895955
2022-10-11T13:15:02.091Z,58.026690658071686
2022-10-11T13:30:01.760Z,60.84059510603582
2022-10-11T13:45:02.450Z,60.45447967661486
2022-10-11T14:00:02.092Z,58.137400124689165
2022-10-11T14:15:01.767Z,59.6724024461117
2022-10-11T14:30:25.553Z,52.476891767030274
2022-10-11T14:45:02.548Z,53.22721445649336
2022-10-11T15:00:02.230Z,54.63006338767548
2022-10-11T15:15:01.892Z,53.02601503328281
2022-10-11T15:30:01.737Z,53.858435416620594
2022-10-11T15:45:02.448Z,53.90506725898221
2022-10-11T16:00:02.061Z,55.896278361873854
2022-10-11T16:15:01.707Z,58.35536690843465
2022-10-11T16:30:02.359Z,60.022775769705234
2022-10-11T16:45:01.960Z,60.8050860920021
2022-10-11T17:00:01.659Z,61.257130122935926
2022-10-11T17:15:02.324Z,61.94470530987518
2022-10-11T17:30:01.981Z,61.89063320146872
2022-10-11T17:45:01.635Z,62.80035361489411
2022-10-11T18:00:02.287Z,63.135547897844724
2022-10-11T18:15:01.893Z,64.27538658200281
2022-10-11T18:30:01.591Z,63.5226131848134
2022-10-11T18:45:02.215Z,64.14826255917802
2022-10-11T19:00:11.784Z,64.7830893171795
2022-10-11T19:15:02.223Z,65.42434357147008
2022-10-11T19:30:02.009Z,64.92283262598862
2022-10-11T19:45:01.703Z,65.46962291027995
2022-10-11T20:00:02.362Z,63.83868902501533
2022-10-11T20:15:01.991Z,66.11262767398007
2022-10-11T20:30:01.695Z,64.29534027487736
2022-10-11T20:45:02.327Z,65.37579083970415
2022-10-11T21:00:01.936Z,65.3340658140504
2022-10-11T21:15:01.574Z,64.84054559776325
2022-10-11T21:30:02.259Z,65.60835469634138
2022-10-11T21:45:01.849Z,65.39944660950053
2022-10-11T22:00:02.660Z,64.70891097551127
2022-10-11T22:15:02.270Z,65.31649910623393
2022-10-11T22:30:01.965Z,65.07299740799499
2022-10-11T22:45:01.620Z,64.82812758751824
2022-10-11T23:00:02.249Z,64.82266560166399
2022-10-11T23:15:01.881Z,64.84421760876596
2022-10-11T23:30:02.578Z,66.18049007647743
2022-10-11T23:45:02.220Z,65.77878973406793
